Johann Essberger — CQKG — position and weather

sailwx.info

Track history (hours):
 
Tides and Currents Weather Stations Pressure Air Temp Water Temp Dewpoint Dewpoint Depression Visibility Wind Speed Wind Dir Waves Ship Positions

Johann Essberger

Last reported at 2016-Jul-28 13:19 UTC. Time now 2016-Jul-28 14:35 UTC.
Position N 59°35' E 022°54'.

Length 98 m; draft 7 m.

Type: Ship (hazmat cat B). MMSI: 255804460.

Date/timePositionNaut miles runAvg speedWind from/ knotsBaromVisibWave heightAir tempDewpointWater temp
2016-Jul-28 13:19N 59°35' E 022°54'1013.2
2016-Jul-28 12:33N 59°38' E 023°13'1413.5
2016-Jul-28 11:33N 59°42' E 023°39'1413.9
2016-Jul-28 10:33N 59°45' E 024°05'1413.5
2016-Jul-28 09:33N 59°48' E 024°31'1313.5
2016-Jul-28 08:33N 59°51' E 024°58'1513.0
2016-Jul-28 07:24N 59°57' E 025°25'19 0.6
2016-Jul-26 22:19N 60°17' E 025°33'0 0.0
2016-Jul-26 21:31N 60°17' E 025°33'10 0.3
2016-Jul-25 09:28N 60°07' E 025°35'5911.8
2016-Jul-25 04:25N 59°38' E 023°52'1112.7
2016-Jul-25 03:33N 59°34' E 023°31'31613.1
2016-Jul-24 03:23N 55°56' E 016°22'1314.4
2016-Jul-24 02:31N 55°50' E 016°03'1414.0
2016-Jul-24 01:32N 55°43' E 015°42'1414.1
2016-Jul-24 00:31N 55°36' E 015°19'1414.1
2016-Jul-23 23:33N 55°30' E 014°58'1413.9
2016-Jul-23 22:33N 55°22' E 014°38'1413.9
2016-Jul-23 21:33N 55°12' E 014°22'1413.8
2016-Jul-23 20:34N 55°01' E 014°07'1413.8
2016-Jul-23 19:33N 54°56' E 013°44'1613.6
2016-Jul-23 18:24N 54°51' E 013°18'1113.5
2016-Jul-23 17:33N 54°47' E 012°60'1312.8
2016-Jul-23 16:33N 54°42' E 012°39'1212.2
2016-Jul-23 15:33N 54°36' E 012°21'1211.6
2016-Jul-23 14:33N 54°26' E 012°11'1211.5
2016-Jul-23 13:34N 54°24' E 011°52'1212.2
2016-Jul-23 12:33N 54°28' E 011°32'1212.0
2016-Jul-23 11:33N 54°34' E 011°14'1211.8
2016-Jul-23 10:33N 54°34' E 010°53'1212.4
2016-Jul-23 09:33N 54°33' E 010°32'1211.6
2016-Jul-23 08:33N 54°27' E 010°15'6 6.2
2016-Jul-23 07:33N 54°22' E 010°08'3 2.6
2016-Jul-23 06:33N 54°22' E 010°04'20 6.8
2016-Jul-23 03:33N 54°12' E 009°33'8 8.1
2016-Jul-23 02:33N 54°08' E 009°21'8 8.1
2016-Jul-23 01:33N 54°01' E 009°18'5 4.7
2016-Jul-23 00:33N 53°57' E 009°14'4 4.1
2016-Jul-22 23:33N 53°54' E 009°09'2 1.7
2016-Jul-22 22:33N 53°53' E 009°06'1111.0
2016-Jul-22 21:33N 53°50' E 008°48'1111.4
2016-Jul-22 20:33N 53°58' E 008°33'1212.4
2016-Jul-22 19:33N 53°60' E 008°13'1212.5
2016-Jul-22 18:34N 54°04' E 007°52'1212.4
2016-Jul-22 17:33N 54°09' E 007°34'1212.1
2016-Jul-22 16:33N 54°09' E 007°13'1412.1
2016-Jul-22 15:26N 54°09' E 006°50'1112.5
2016-Jul-22 14:33N 54°09' E 006°31'1512.7
2016-Jul-22 13:21N 54°07' E 006°05'1013.0
2016-Jul-22 12:33N 54°06' E 005°47'1413.3
2016-Jul-22 11:30N 54°04' E 005°24'1313.5
2016-Jul-22 10:33N 54°02' E 005°02'1513.6
2016-Jul-22 09:25N 53°60' E 004°36'18 3.4
2016-Jul-22 04:13N 53°57' E 004°07'2 2.2
2016-Jul-22 03:25N 53°58' E 004°08'2111.1
2016-Jul-22 01:33N 54°01' E 003°33'2813.4
2016-Jul-21 23:29N 53°59' E 002°47'1313.8
2016-Jul-21 22:33N 53°57' E 002°25'1413.9
2016-Jul-21 21:33N 53°52' E 002°03'4613.7
2016-Jul-21 18:12N 53°36' E 000°50'813.0
2016-Jul-21 17:33N 53°34' E 000°37'1312.9
2016-Jul-21 16:33N 53°32' E 000°15'8 8.5
2016-Jul-21 15:33N 53°35' E 000°02'8 8.3
2016-Jul-21 14:34N 53°38' W 000°12'0 0.1
2016-Jul-21 13:33N 53°38' W 000°11'0 0.0
2016-Jul-20 13:33N 53°38' W 000°11'6 5.8
2016-Jul-20 12:33N 53°36' W 000°02'1010.5
2016-Jul-20 11:33N 53°33' E 000°15'6 5.7
2016-Jul-20 10:31N 53°36' E 000°24'0 0.0
2016-Jul-20 09:34N 53°36' E 000°23'0 0.0
2016-Jul-20 08:31N 53°36' E 000°23'0 0.1
2016-Jul-20 07:31N 53°36' E 000°23'0 0.0
2016-Jul-20 06:34N 53°36' E 000°23'0 0.1
2016-Jul-20 05:34N 53°36' E 000°24'0 0.0
2016-Jul-20 04:34N 53°36' E 000°24'0 0.0
2016-Jul-20 03:28N 53°36' E 000°24'0 0.0
2016-Jul-20 02:22N 53°36' E 000°24'0 0.2
2016-Jul-20 01:34N 53°36' E 000°23'0 0.0
2016-Jul-20 00:31N 53°36' E 000°23'0 0.0
2016-Jul-19 23:25N 53°36' E 000°23'0 0.0
2016-Jul-19 22:31N 53°36' E 000°24'0 0.0
2016-Jul-19 21:31N 53°36' E 000°24'0 0.0
2016-Jul-19 20:25N 53°36' E 000°24'0 0.0
2016-Jul-19 19:31N 53°36' E 000°23'0 0.1
2016-Jul-19 18:25N 53°36' E 000°24'0 0.1
2016-Jul-19 16:28N 53°36' E 000°24'0 0.0
2016-Jul-19 15:13N 53°36' E 000°24'0 0.1
2016-Jul-19 13:28N 53°36' E 000°24'0 0.1
2016-Jul-19 12:31N 53°36' E 000°24'0 0.0
2016-Jul-19 11:31N 53°36' E 000°24'0 0.0
2016-Jul-19 10:34N 53°36' E 000°24'0 0.0
2016-Jul-19 09:31N 53°36' E 000°24'0 0.0
2016-Jul-19 08:31N 53°36' E 000°24'0 0.0
2016-Jul-19 07:31N 53°36' E 000°24'0 0.0
2016-Jul-19 06:25N 53°36' E 000°24'0 0.1
2016-Jul-19 04:28N 53°36' E 000°24'0 0.0
2016-Jul-19 03:16N 53°36' E 000°24'0 0.1
2016-Jul-19 02:31N 53°36' E 000°24'0 0.0
2016-Jul-19 01:31N 53°36' E 000°24'0 0.1
2016-Jul-19 00:34N 53°36' E 000°24'0 0.0
2016-Jul-18 23:31N 53°36' E 000°24'0 0.0
2016-Jul-18 22:34N 53°36' E 000°24'0 0.0
2016-Jul-18 21:19N 53°36' E 000°24'0 0.0
2016-Jul-18 20:31N 53°36' E 000°24'0 0.0
2016-Jul-18 19:34N 53°36' E 000°24'0 0.0
2016-Jul-18 18:22N 53°36' E 000°24'  
Track history (hours):
 
Tides and Currents Weather Stations Pressure Air Temp Water Temp Dewpoint Dewpoint Depression Visibility Wind Speed Wind Dir Waves Ship Positions

Johann Essberger

Last reported at 2016-Jul-28 13:19 UTC. Time now 2016-Jul-28 14:35 UTC.
Position N 59°35' E 022°54'.

Length 98 m; draft 7 m.

Type: Ship (hazmat cat B). MMSI: 255804460.

Date/timePositionNaut miles runAvg speedWind from/ knotsBaromVisibWave heightAir tempDewpointWater temp
2016-Jul-28 13:19N 59°35' E 022°54'1013.2
2016-Jul-28 12:33N 59°38' E 023°13'1413.5
2016-Jul-28 11:33N 59°42' E 023°39'1413.9
2016-Jul-28 10:33N 59°45' E 024°05'1413.5
2016-Jul-28 09:33N 59°48' E 024°31'1313.5
2016-Jul-28 08:33N 59°51' E 024°58'1513.0
2016-Jul-28 07:24N 59°57' E 025°25'19 0.6
2016-Jul-26 22:19N 60°17' E 025°33'0 0.0
2016-Jul-26 21:31N 60°17' E 025°33'10 0.3
2016-Jul-25 09:28N 60°07' E 025°35'5911.8
2016-Jul-25 04:25N 59°38' E 023°52'1112.7
2016-Jul-25 03:33N 59°34' E 023°31'31613.1
2016-Jul-24 03:23N 55°56' E 016°22'1314.4
2016-Jul-24 02:31N 55°50' E 016°03'1414.0
2016-Jul-24 01:32N 55°43' E 015°42'1414.1
2016-Jul-24 00:31N 55°36' E 015°19'1414.1
2016-Jul-23 23:33N 55°30' E 014°58'1413.9
2016-Jul-23 22:33N 55°22' E 014°38'1413.9
2016-Jul-23 21:33N 55°12' E 014°22'1413.8
2016-Jul-23 20:34N 55°01' E 014°07'1413.8
2016-Jul-23 19:33N 54°56' E 013°44'1613.6
2016-Jul-23 18:24N 54°51' E 013°18'1113.5
2016-Jul-23 17:33N 54°47' E 012°60'1312.8
2016-Jul-23 16:33N 54°42' E 012°39'1212.2
2016-Jul-23 15:33N 54°36' E 012°21'1211.6
2016-Jul-23 14:33N 54°26' E 012°11'1211.5
2016-Jul-23 13:34N 54°24' E 011°52'1212.2
2016-Jul-23 12:33N 54°28' E 011°32'1212.0
2016-Jul-23 11:33N 54°34' E 011°14'1211.8
2016-Jul-23 10:33N 54°34' E 010°53'1212.4
2016-Jul-23 09:33N 54°33' E 010°32'1211.6
2016-Jul-23 08:33N 54°27' E 010°15'6 6.2
2016-Jul-23 07:33N 54°22' E 010°08'3 2.6
2016-Jul-23 06:33N 54°22' E 010°04'20 6.8
2016-Jul-23 03:33N 54°12' E 009°33'8 8.1
2016-Jul-23 02:33N 54°08' E 009°21'8 8.1
2016-Jul-23 01:33N 54°01' E 009°18'5 4.7
2016-Jul-23 00:33N 53°57' E 009°14'4 4.1
2016-Jul-22 23:33N 53°54' E 009°09'2 1.7
2016-Jul-22 22:33N 53°53' E 009°06'1111.0
2016-Jul-22 21:33N 53°50' E 008°48'1111.4
2016-Jul-22 20:33N 53°58' E 008°33'1212.4
2016-Jul-22 19:33N 53°60' E 008°13'1212.5
2016-Jul-22 18:34N 54°04' E 007°52'1212.4
2016-Jul-22 17:33N 54°09' E 007°34'1212.1
2016-Jul-22 16:33N 54°09' E 007°13'1412.1
2016-Jul-22 15:26N 54°09' E 006°50'1112.5
2016-Jul-22 14:33N 54°09' E 006°31'1512.7
2016-Jul-22 13:21N 54°07' E 006°05'1013.0
2016-Jul-22 12:33N 54°06' E 005°47'1413.3
2016-Jul-22 11:30N 54°04' E 005°24'1313.5
2016-Jul-22 10:33N 54°02' E 005°02'1513.6
2016-Jul-22 09:25N 53°60' E 004°36'18 3.4
2016-Jul-22 04:13N 53°57' E 004°07'2 2.2
2016-Jul-22 03:25N 53°58' E 004°08'2111.1
2016-Jul-22 01:33N 54°01' E 003°33'2813.4
2016-Jul-21 23:29N 53°59' E 002°47'1313.8
2016-Jul-21 22:33N 53°57' E 002°25'1413.9
2016-Jul-21 21:33N 53°52' E 002°03'4613.7
2016-Jul-21 18:12N 53°36' E 000°50'813.0
2016-Jul-21 17:33N 53°34' E 000°37'1312.9
2016-Jul-21 16:33N 53°32' E 000°15'8 8.5
2016-Jul-21 15:33N 53°35' E 000°02'8 8.3
2016-Jul-21 14:34N 53°38' W 000°12'0 0.1
2016-Jul-21 13:33N 53°38' W 000°11'0 0.0
2016-Jul-20 13:33N 53°38' W 000°11'6 5.8
2016-Jul-20 12:33N 53°36' W 000°02'1010.5
2016-Jul-20 11:33N 53°33' E 000°15'6 5.7
2016-Jul-20 10:31N 53°36' E 000°24'0 0.0
2016-Jul-20 09:34N 53°36' E 000°23'0 0.0
2016-Jul-20 08:31N 53°36' E 000°23'0 0.1
2016-Jul-20 07:31N 53°36' E 000°23'0 0.0
2016-Jul-20 06:34N 53°36' E 000°23'0 0.1
2016-Jul-20 05:34N 53°36' E 000°24'0 0.0
2016-Jul-20 04:34N 53°36' E 000°24'0 0.0
2016-Jul-20 03:28N 53°36' E 000°24'0 0.0
2016-Jul-20 02:22N 53°36' E 000°24'0 0.2
2016-Jul-20 01:34N 53°36' E 000°23'0 0.0
2016-Jul-20 00:31N 53°36' E 000°23'0 0.0
2016-Jul-19 23:25N 53°36' E 000°23'0 0.0
2016-Jul-19 22:31N 53°36' E 000°24'0 0.0
2016-Jul-19 21:31N 53°36' E 000°24'0 0.0
2016-Jul-19 20:25N 53°36' E 000°24'0 0.0
2016-Jul-19 19:31N 53°36' E 000°23'0 0.1
2016-Jul-19 18:25N 53°36' E 000°24'0 0.1
2016-Jul-19 16:28N 53°36' E 000°24'0 0.0
2016-Jul-19 15:13N 53°36' E 000°24'0 0.1
2016-Jul-19 13:28N 53°36' E 000°24'0 0.1
2016-Jul-19 12:31N 53°36' E 000°24'0 0.0
2016-Jul-19 11:31N 53°36' E 000°24'0 0.0
2016-Jul-19 10:34N 53°36' E 000°24'0 0.0
2016-Jul-19 09:31N 53°36' E 000°24'0 0.0
2016-Jul-19 08:31N 53°36' E 000°24'0 0.0
2016-Jul-19 07:31N 53°36' E 000°24'0 0.0
2016-Jul-19 06:25N 53°36' E 000°24'0 0.1
2016-Jul-19 04:28N 53°36' E 000°24'0 0.0
2016-Jul-19 03:16N 53°36' E 000°24'0 0.1
2016-Jul-19 02:31N 53°36' E 000°24'0 0.0
2016-Jul-19 01:31N 53°36' E 000°24'0 0.1
2016-Jul-19 00:34N 53°36' E 000°24'0 0.0
2016-Jul-18 23:31N 53°36' E 000°24'0 0.0
2016-Jul-18 22:34N 53°36' E 000°24'0 0.0
2016-Jul-18 21:19N 53°36' E 000°24'0 0.0
2016-Jul-18 20:31N 53°36' E 000°24'0 0.0
2016-Jul-18 19:34N 53°36' E 000°24'0 0.0
2016-Jul-18 18:22N 53°36' E 000°24'  

Dump ship's entire track history